createdAt,value
2023-01-31T00:01:32.227Z,15.60
2023-01-31T00:04:01.936Z,15.60
2023-01-31T00:06:33.876Z,15.60
2023-01-31T00:09:01.921Z,15.70
2023-01-31T00:11:31.215Z,15.70
2023-01-31T00:13:59.551Z,15.60
2023-01-31T00:16:28.138Z,15.60
2023-01-31T00:18:55.634Z,15.70
2023-01-31T00:21:24.618Z,15.70
2023-01-31T00:23:52.978Z,15.70
2023-01-31T00:26:30.172Z,15.90
2023-01-31T00:28:58.369Z,15.80
2023-01-31T00:31:27.000Z,15.90
2023-01-31T00:33:55.212Z,16.00
2023-01-31T00:36:30.749Z,16.10
2023-01-31T00:39:00.556Z,16.10
2023-01-31T00:41:29.275Z,16.20
2023-01-31T00:43:57.415Z,16.30
2023-01-31T00:46:25.418Z,16.40
2023-01-31T00:48:53.350Z,16.40
2023-01-31T00:51:21.381Z,16.50
2023-01-31T00:53:49.546Z,16.50
2023-01-31T00:56:23.379Z,16.60
2023-01-31T00:58:52.143Z,16.70
2023-01-31T01:01:22.021Z,16.80
2023-01-31T01:03:49.863Z,16.90
2023-01-31T01:06:17.603Z,16.90
2023-01-31T01:08:46.266Z,17.00
2023-01-31T01:11:18.964Z,17.10
2023-01-31T01:13:46.779Z,17.20
2023-01-31T01:16:24.709Z,17.20
2023-01-31T01:18:55.859Z,17.30
2023-01-31T01:21:27.417Z,17.40
2023-01-31T01:23:56.970Z,17.50
2023-01-31T01:26:28.099Z,17.60
2023-01-31T01:28:58.228Z,17.70
2023-01-31T01:31:30.857Z,17.70
2023-01-31T01:34:17.117Z,17.80
2023-01-31T01:36:47.783Z,17.90
2023-01-31T01:39:15.728Z,18.00
2023-01-31T01:41:43.467Z,18.10
2023-01-31T01:44:30.624Z,18.20
2023-01-31T01:47:01.074Z,18.30
2023-01-31T01:49:28.921Z,18.40
2023-01-31T01:51:59.220Z,18.50
2023-01-31T01:54:31.571Z,18.60
2023-01-31T01:57:01.051Z,18.70
2023-01-31T01:59:55.059Z,18.70
2023-01-31T02:02:23.881Z,18.90
2023-01-31T02:04:52.738Z,19.00
2023-01-31T02:07:20.402Z,19.10
2023-01-31T02:09:58.123Z,19.20
2023-01-31T02:12:26.466Z,19.20
2023-01-31T02:14:55.125Z,19.30
2023-01-31T02:17:23.577Z,19.30
2023-01-31T02:20:12.613Z,19.40
2023-01-31T02:22:47.644Z,19.50
2023-01-31T02:25:15.175Z,19.60
2023-01-31T02:27:45.815Z,19.70
2023-01-31T02:30:43.219Z,19.70
2023-01-31T02:33:18.005Z,19.80
2023-01-31T02:36:01.007Z,19.90
2023-01-31T02:38:43.139Z,20.00
2023-01-31T02:41:16.686Z,20.00
2023-01-31T02:44:02.246Z,20.10
2023-01-31T02:46:40.637Z,20.20
2023-01-31T02:49:16.229Z,20.30
2023-01-31T02:52:07.002Z,20.30
2023-01-31T02:54:55.445Z,20.30
2023-01-31T02:57:23.491Z,20.40
2023-01-31T02:59:52.819Z,20.40
2023-01-31T03:02:20.482Z,20.50
2023-01-31T03:04:49.513Z,20.50
2023-01-31T03:07:26.715Z,20.50
2023-01-31T03:10:03.504Z,20.60
2023-01-31T03:12:38.034Z,20.70
2023-01-31T03:15:08.787Z,20.80
2023-01-31T03:17:51.354Z,20.90
2023-01-31T03:20:44.696Z,21.00
2023-01-31T03:23:15.127Z,21.00
2023-01-31T03:25:42.986Z,21.10
2023-01-31T03:28:13.166Z,21.10
2023-01-31T03:30:46.448Z,21.20
2023-01-31T03:33:17.041Z,21.30
2023-01-31T03:35:54.526Z,21.30
2023-01-31T03:38:24.556Z,21.30
2023-01-31T03:41:02.591Z,21.40
2023-01-31T03:43:53.351Z,21.50
2023-01-31T03:46:27.380Z,21.60
2023-01-31T03:48:57.139Z,21.70
2023-01-31T03:51:28.268Z,21.80
2023-01-31T03:53:58.694Z,21.80
2023-01-31T03:56:29.997Z,21.90
2023-01-31T03:59:02.123Z,21.90
2023-01-31T04:01:32.567Z,22.00
2023-01-31T04:04:04.364Z,22.00
2023-01-31T04:06:32.276Z,22.10
2023-01-31T04:08:59.886Z,22.10
2023-01-31T04:11:28.660Z,22.20
2023-01-31T04:13:56.249Z,22.20
2023-01-31T04:16:24.868Z,22.30
2023-01-31T04:18:52.761Z,22.40
2023-01-31T04:21:20.317Z,22.40
2023-01-31T04:23:47.827Z,22.40
2023-01-31T04:26:15.655Z,22.50
2023-01-31T04:28:44.766Z,22.60
2023-01-31T04:31:12.419Z,22.70
2023-01-31T04:33:40.448Z,22.80
2023-01-31T04:36:08.991Z,22.80
2023-01-31T04:38:41.234Z,22.80
2023-01-31T04:41:09.722Z,22.90
2023-01-31T04:43:37.346Z,23.00
2023-01-31T04:46:04.981Z,23.00
2023-01-31T04:48:32.998Z,23.10
2023-01-31T04:51:00.750Z,23.10
2023-01-31T04:53:29.501Z,23.20
2023-01-31T04:55:57.588Z,23.20
2023-01-31T04:58:25.905Z,23.30
2023-01-31T05:00:54.459Z,23.30
2023-01-31T05:03:22.280Z,23.30
2023-01-31T05:05:50.375Z,23.30
2023-01-31T05:08:18.012Z,23.40
2023-01-31T05:10:45.650Z,23.50
2023-01-31T05:13:14.641Z,23.50
2023-01-31T05:15:45.700Z,23.60
2023-01-31T05:18:13.243Z,23.60
2023-01-31T05:20:41.189Z,23.70
2023-01-31T05:23:08.914Z,23.80
2023-01-31T05:25:37.393Z,23.80
2023-01-31T05:28:05.341Z,23.90
2023-01-31T05:30:38.326Z,23.90
2023-01-31T05:33:07.309Z,23.90
2023-01-31T05:35:37.522Z,24.00
2023-01-31T05:38:05.072Z,24.10
2023-01-31T05:40:34.209Z,24.20
2023-01-31T05:43:02.130Z,24.30
2023-01-31T05:45:33.239Z,24.40
2023-01-31T05:48:01.230Z,24.40
2023-01-31T05:50:28.975Z,24.40
2023-01-31T05:53:01.959Z,24.40
2023-01-31T05:55:32.676Z,24.40
2023-01-31T05:58:01.557Z,24.50
2023-01-31T06:00:31.024Z,24.60
2023-01-31T06:03:00.343Z,24.60
2023-01-31T06:05:30.906Z,24.70
2023-01-31T06:07:58.953Z,24.80
2023-01-31T06:10:27.586Z,24.80
2023-01-31T06:12:55.187Z,24.80
2023-01-31T06:15:23.639Z,24.80
2023-01-31T06:17:51.189Z,24.80
2023-01-31T06:20:19.665Z,24.90
2023-01-31T06:22:47.405Z,25.00
2023-01-31T06:25:14.959Z,25.00
2023-01-31T06:27:42.833Z,25.10
2023-01-31T06:30:11.671Z,25.20
2023-01-31T06:32:41.777Z,25.20
2023-01-31T06:35:09.577Z,25.20
2023-01-31T06:37:38.236Z,25.30
2023-01-31T06:40:10.403Z,25.30
2023-01-31T06:42:38.413Z,25.40
2023-01-31T06:45:06.893Z,25.40
2023-01-31T06:47:34.405Z,25.40
2023-01-31T06:50:03.075Z,25.40
2023-01-31T06:52:30.678Z,25.40
2023-01-31T06:54:58.201Z,25.40
2023-01-31T06:57:25.901Z,25.40
2023-01-31T06:59:55.032Z,25.40
2023-01-31T07:02:22.626Z,25.50
2023-01-31T07:04:50.294Z,25.50
2023-01-31T07:07:18.439Z,25.50
2023-01-31T07:09:46.052Z,25.60
2023-01-31T07:12:13.855Z,25.60
2023-01-31T07:14:42.816Z,25.60
2023-01-31T07:17:10.468Z,25.60
2023-01-31T07:19:39.431Z,25.70
2023-01-31T07:22:07.003Z,25.70
2023-01-31T07:24:34.543Z,25.80
2023-01-31T07:27:06.527Z,25.80
2023-01-31T07:29:44.537Z,25.80
2023-01-31T07:32:12.502Z,25.80
2023-01-31T07:34:40.840Z,25.90
2023-01-31T07:37:08.411Z,25.90
2023-01-31T07:39:36.962Z,25.90
2023-01-31T07:42:04.610Z,25.90
2023-01-31T07:44:32.500Z,25.90
2023-01-31T07:47:00.356Z,25.90
2023-01-31T07:49:27.868Z,25.90
2023-01-31T07:51:55.497Z,25.90
2023-01-31T07:54:23.440Z,25.90
2023-01-31T07:56:51.791Z,25.90
2023-01-31T07:59:19.701Z,25.90
2023-01-31T08:02:06.490Z,26.00
2023-01-31T08:04:37.513Z,26.00
2023-01-31T08:07:07.252Z,26.00
2023-01-31T08:09:35.125Z,26.00
2023-01-31T08:12:05.988Z,26.00
2023-01-31T08:14:33.897Z,26.00
2023-01-31T08:17:01.675Z,26.00
2023-01-31T08:19:30.464Z,26.00
2023-01-31T08:21:58.102Z,26.00
2023-01-31T08:24:25.820Z,26.00
2023-01-31T08:26:53.640Z,26.00
2023-01-31T08:29:25.303Z,26.00
2023-01-31T08:31:53.403Z,26.10
2023-01-31T08:34:24.043Z,26.10
2023-01-31T08:36:51.758Z,26.20
2023-01-31T08:39:20.405Z,26.20
2023-01-31T08:41:48.674Z,26.20
2023-01-31T08:44:16.313Z,26.20
2023-01-31T08:46:46.814Z,26.10
2023-01-31T08:49:18.644Z,26.10
2023-01-31T08:51:53.013Z,26.10
2023-01-31T08:54:30.344Z,26.20
2023-01-31T09:02:27.044Z,26.20
2023-01-31T09:04:54.864Z,26.20
2023-01-31T09:07:23.293Z,26.20
2023-01-31T09:09:51.248Z,26.20
2023-01-31T09:12:18.852Z,26.20
2023-01-31T09:14:50.209Z,26.20
2023-01-31T09:17:18.059Z,26.20
2023-01-31T09:19:46.038Z,26.20
2023-01-31T09:22:13.560Z,26.20
2023-01-31T09:24:41.231Z,26.20
2023-01-31T09:27:09.758Z,26.20
2023-01-31T09:29:37.619Z,26.20
2023-01-31T09:32:06.067Z,26.20
2023-01-31T09:34:33.795Z,26.20
2023-01-31T09:37:01.397Z,26.10
2023-01-31T09:39:29.522Z,26.10
2023-01-31T09:42:00.143Z,26.00
2023-01-31T09:44:28.672Z,26.00
2023-01-31T09:47:07.491Z,26.00
2023-01-31T09:49:42.237Z,26.00
2023-01-31T09:52:12.402Z,26.10
2023-01-31T09:54:41.301Z,26.10
2023-01-31T09:57:24.990Z,26.10
2023-01-31T10:00:11.939Z,26.10
2023-01-31T10:03:02.702Z,26.00
2023-01-31T10:05:40.277Z,26.00
2023-01-31T10:08:10.865Z,26.00
2023-01-31T10:10:38.395Z,26.00
2023-01-31T10:13:34.500Z,26.00
2023-01-31T10:16:10.727Z,25.90
2023-01-31T10:18:40.639Z,25.90
2023-01-31T10:21:18.272Z,25.90
2023-01-31T10:23:49.577Z,25.90
2023-01-31T10:26:21.272Z,25.80
2023-01-31T10:29:04.184Z,25.80
2023-01-31T10:31:36.055Z,25.70
2023-01-31T10:34:11.887Z,25.70
2023-01-31T10:36:52.037Z,25.70
2023-01-31T10:39:38.180Z,25.70
2023-01-31T10:42:42.194Z,25.60
2023-01-31T10:45:09.812Z,25.60
2023-01-31T10:47:40.048Z,25.50
2023-01-31T10:50:15.515Z,25.50
2023-01-31T10:53:02.041Z,25.40
2023-01-31T10:55:59.049Z,25.40
2023-01-31T10:58:27.430Z,25.30
2023-01-31T11:00:55.358Z,25.30
2023-01-31T11:03:23.240Z,25.20
2023-01-31T11:05:57.988Z,25.20
2023-01-31T11:08:32.039Z,25.20
2023-01-31T11:11:04.725Z,25.10
2023-01-31T11:13:32.422Z,25.00
2023-01-31T11:16:02.269Z,25.00
2023-01-31T11:18:32.417Z,24.90
2023-01-31T11:21:01.580Z,24.90
2023-01-31T11:23:31.370Z,24.80
2023-01-31T11:25:59.182Z,24.80
2023-01-31T11:28:35.346Z,24.70
2023-01-31T11:31:04.695Z,24.60
2023-01-31T11:33:39.700Z,24.60
2023-01-31T11:36:12.159Z,24.50
2023-01-31T11:38:39.719Z,24.50
2023-01-31T11:41:25.985Z,24.40
2023-01-31T11:44:14.026Z,24.40
2023-01-31T11:46:44.287Z,24.30
2023-01-31T11:49:20.649Z,24.30
2023-01-31T11:51:48.881Z,24.30
2023-01-31T11:54:20.133Z,24.20
2023-01-31T11:56:47.814Z,24.20
2023-01-31T11:59:20.573Z,24.10
2023-01-31T12:01:49.479Z,24.10
2023-01-31T12:04:19.072Z,24.00
2023-01-31T12:06:57.854Z,24.10
2023-01-31T12:09:26.649Z,24.00
2023-01-31T12:11:58.301Z,24.00
2023-01-31T12:14:36.888Z,23.90
2023-01-31T12:17:04.964Z,23.90
2023-01-31T12:19:51.028Z,23.80
2023-01-31T12:22:31.920Z,23.80
2023-01-31T12:25:16.095Z,23.70
2023-01-31T12:27:43.682Z,23.70
2023-01-31T12:30:11.500Z,23.70
2023-01-31T12:32:48.284Z,23.60
2023-01-31T12:35:15.812Z,23.50
2023-01-31T12:37:55.461Z,23.40
2023-01-31T12:40:25.648Z,23.40
2023-01-31T12:43:22.677Z,23.30
2023-01-31T12:46:04.477Z,23.30
2023-01-31T12:48:44.993Z,23.30
2023-01-31T12:51:18.667Z,23.20
2023-01-31T12:53:58.628Z,23.20
2023-01-31T12:56:29.131Z,23.20
2023-01-31T12:59:16.692Z,23.20
2023-01-31T13:01:55.632Z,23.10
2023-01-31T13:04:29.525Z,23.10
2023-01-31T13:07:00.138Z,23.00
2023-01-31T13:09:29.561Z,23.00
2023-01-31T13:12:32.370Z,22.90
2023-01-31T13:15:13.334Z,22.90
2023-01-31T13:17:43.952Z,22.90
2023-01-31T13:20:30.425Z,22.80
2023-01-31T13:23:00.248Z,22.70
2023-01-31T13:25:48.427Z,22.70
2023-01-31T13:28:25.981Z,22.70
2023-01-31T13:30:58.393Z,22.60
2023-01-31T13:34:01.469Z,22.60
2023-01-31T13:36:39.537Z,22.50
2023-01-31T13:39:12.775Z,22.50
2023-01-31T13:41:41.047Z,22.40
2023-01-31T13:44:12.510Z,22.30
2023-01-31T13:46:40.227Z,22.30
2023-01-31T13:49:10.345Z,22.30
2023-01-31T13:51:40.696Z,22.20
2023-01-31T13:54:15.514Z,22.20
2023-01-31T13:56:43.217Z,22.10
2023-01-31T13:59:11.331Z,22.10
2023-01-31T14:01:49.085Z,22.00
2023-01-31T14:04:17.943Z,22.00
2023-01-31T14:06:54.579Z,21.90
2023-01-31T14:09:26.896Z,21.90
2023-01-31T14:11:58.672Z,21.90
2023-01-31T14:14:39.410Z,21.90
2023-01-31T14:17:10.057Z,21.90
2023-01-31T14:19:43.658Z,21.90
2023-01-31T14:22:22.158Z,21.80
2023-01-31T14:25:01.956Z,21.80
2023-01-31T14:27:29.492Z,21.80
2023-01-31T14:30:06.102Z,21.80
2023-01-31T14:32:34.830Z,21.80
2023-01-31T14:35:13.168Z,21.80
2023-01-31T14:37:40.701Z,21.70
2023-01-31T14:40:09.660Z,21.70
2023-01-31T14:42:52.450Z,21.70
2023-01-31T14:45:23.839Z,21.60
2023-01-31T14:47:57.275Z,21.60
2023-01-31T14:50:24.860Z,21.50
2023-01-31T14:53:10.813Z,21.50
2023-01-31T14:56:08.554Z,21.50
2023-01-31T14:58:36.457Z,21.40
2023-01-31T15:01:05.837Z,21.40
2023-01-31T15:03:33.443Z,21.30
2023-01-31T15:06:21.189Z,21.20
2023-01-31T15:08:49.631Z,21.20
2023-01-31T15:11:41.000Z,21.10
2023-01-31T15:14:33.765Z,21.00
2023-01-31T15:17:04.822Z,21.00
2023-01-31T15:19:36.676Z,20.90
2023-01-31T15:22:07.854Z,20.90
2023-01-31T15:24:46.923Z,20.90
2023-01-31T15:27:22.721Z,20.80
2023-01-31T15:29:59.141Z,20.80
2023-01-31T15:32:28.423Z,20.70
2023-01-31T15:34:59.799Z,20.70
2023-01-31T15:37:31.944Z,20.60
2023-01-31T15:40:03.509Z,20.60
2023-01-31T15:42:32.698Z,20.60
2023-01-31T15:45:32.491Z,20.60
2023-01-31T15:48:01.793Z,20.50
2023-01-31T15:50:31.244Z,20.50
2023-01-31T15:53:14.919Z,20.50
2023-01-31T15:55:45.824Z,20.40
2023-01-31T15:58:31.831Z,20.40
2023-01-31T16:01:00.622Z,20.40
2023-01-31T16:03:29.575Z,20.40
2023-01-31T16:05:58.221Z,20.40
2023-01-31T16:08:29.945Z,20.40
2023-01-31T16:10:58.169Z,20.40
2023-01-31T16:13:26.713Z,20.40
2023-01-31T16:15:54.518Z,20.40
2023-01-31T16:18:22.313Z,20.50
2023-01-31T16:20:51.346Z,20.50
2023-01-31T16:23:24.906Z,20.40
2023-01-31T16:25:58.007Z,20.40
2023-01-31T16:28:25.874Z,20.40
2023-01-31T16:30:53.645Z,20.30
2023-01-31T16:33:24.712Z,20.20
2023-01-31T16:36:12.884Z,20.20
2023-01-31T16:38:43.347Z,20.10
2023-01-31T16:41:13.258Z,20.10
2023-01-31T16:43:42.097Z,20.00
2023-01-31T16:46:19.695Z,20.10
2023-01-31T16:49:04.135Z,20.00
2023-01-31T16:51:31.678Z,19.90
2023-01-31T16:54:22.265Z,19.90
2023-01-31T16:57:02.133Z,19.80
2023-01-31T16:59:37.894Z,19.80
2023-01-31T17:02:26.108Z,19.80
2023-01-31T17:04:55.327Z,19.80
2023-01-31T17:07:24.631Z,19.70
2023-01-31T17:09:59.934Z,19.70
2023-01-31T17:12:29.337Z,19.70
2023-01-31T17:15:03.092Z,19.60
2023-01-31T17:17:33.131Z,19.60
2023-01-31T17:20:00.792Z,19.50
2023-01-31T17:22:28.363Z,19.50
2023-01-31T17:24:55.886Z,19.50
2023-01-31T17:27:23.585Z,19.50
2023-01-31T17:29:51.187Z,19.40
2023-01-31T17:32:20.854Z,19.40
2023-01-31T17:34:51.470Z,19.40
2023-01-31T17:37:30.082Z,19.40
2023-01-31T17:39:59.014Z,19.40
2023-01-31T17:42:26.512Z,19.30
2023-01-31T17:44:54.003Z,19.30
2023-01-31T17:47:24.081Z,19.30
2023-01-31T17:49:51.608Z,19.20
2023-01-31T17:52:19.141Z,19.20
2023-01-31T17:54:46.712Z,19.20
2023-01-31T17:57:14.391Z,19.10
2023-01-31T17:59:41.903Z,19.10
2023-01-31T18:02:10.452Z,19.10
2023-01-31T18:04:38.220Z,19.00
2023-01-31T18:07:05.728Z,19.00
2023-01-31T18:09:33.327Z,19.00
2023-01-31T18:12:00.864Z,19.00
2023-01-31T18:14:29.162Z,19.00
2023-01-31T18:16:56.763Z,19.00
2023-01-31T18:19:24.293Z,19.00
2023-01-31T18:21:55.364Z,19.00
2023-01-31T18:24:23.713Z,19.00
2023-01-31T18:26:51.426Z,19.00
2023-01-31T18:29:24.150Z,18.90
2023-01-31T18:31:55.416Z,19.00
2023-01-31T18:34:22.936Z,19.00
2023-01-31T18:36:50.943Z,19.00
2023-01-31T18:39:18.523Z,19.00
2023-01-31T18:41:46.060Z,18.90
2023-01-31T18:44:13.674Z,18.90
2023-01-31T18:46:41.296Z,18.90
2023-01-31T18:49:09.007Z,19.00
2023-01-31T18:51:36.799Z,19.00
2023-01-31T18:54:04.806Z,19.00
2023-01-31T18:56:32.359Z,18.90
2023-01-31T18:59:00.823Z,18.90
2023-01-31T19:01:31.502Z,18.90
2023-01-31T19:03:59.068Z,19.00
2023-01-31T19:06:28.658Z,19.00
2023-01-31T19:08:57.484Z,19.10
2023-01-31T19:11:27.213Z,19.10
2023-01-31T19:13:55.255Z,19.10
2023-01-31T19:16:24.464Z,19.10
2023-01-31T19:18:52.129Z,19.10
2023-01-31T19:21:20.813Z,19.10
2023-01-31T19:23:48.801Z,19.00
2023-01-31T19:26:17.824Z,19.00
2023-01-31T19:28:46.366Z,19.00
2023-01-31T19:31:15.963Z,19.00
2023-01-31T19:33:48.265Z,18.90
2023-01-31T19:36:17.430Z,18.80
2023-01-31T19:38:45.134Z,18.80
2023-01-31T19:41:14.217Z,18.70
2023-01-31T19:43:41.803Z,18.70
2023-01-31T19:46:09.968Z,18.70
2023-01-31T19:48:37.559Z,18.60
2023-01-31T19:51:09.288Z,18.60
2023-01-31T19:53:37.280Z,18.60
2023-01-31T19:56:05.050Z,18.50
2023-01-31T19:58:33.523Z,18.50
2023-01-31T20:01:08.201Z,18.40
2023-01-31T20:03:36.192Z,18.40
2023-01-31T20:06:05.625Z,18.40
2023-01-31T20:08:33.150Z,18.40
2023-01-31T20:11:00.871Z,18.40
2023-01-31T20:13:28.459Z,18.40
2023-01-31T20:16:03.137Z,18.30
2023-01-31T20:18:31.798Z,18.30
2023-01-31T20:20:59.416Z,18.30
2023-01-31T20:23:28.842Z,18.30
2023-01-31T20:25:56.799Z,18.30
2023-01-31T20:28:24.975Z,18.30
2023-01-31T20:30:52.936Z,18.30
2023-01-31T20:33:20.638Z,18.30
2023-01-31T20:35:48.771Z,18.30
2023-01-31T20:38:18.333Z,18.30
2023-01-31T20:40:52.965Z,18.40
2023-01-31T20:43:22.081Z,18.40
2023-01-31T20:45:49.890Z,18.40
2023-01-31T20:48:17.561Z,18.40
2023-01-31T20:50:45.077Z,18.40
2023-01-31T20:53:18.666Z,18.40
2023-01-31T20:55:47.243Z,18.40
2023-01-31T20:58:14.850Z,18.40
2023-01-31T21:00:42.408Z,18.40
2023-01-31T21:03:09.953Z,18.50
2023-01-31T21:05:39.182Z,18.40
2023-01-31T21:08:06.884Z,18.50
2023-01-31T21:10:34.746Z,18.50
2023-01-31T21:13:02.271Z,18.50
2023-01-31T21:15:29.881Z,18.50
2023-01-31T21:17:57.563Z,18.50
2023-01-31T21:20:25.136Z,18.60
2023-01-31T21:22:52.659Z,18.50
2023-01-31T21:25:20.219Z,18.50
2023-01-31T21:27:49.274Z,18.60
2023-01-31T21:30:17.295Z,18.50
2023-01-31T21:32:45.128Z,18.50
2023-01-31T21:35:13.810Z,18.50
2023-01-31T21:37:41.653Z,18.50
2023-01-31T21:40:09.542Z,18.50
2023-01-31T21:42:37.143Z,18.50
2023-01-31T21:45:04.885Z,18.50
2023-01-31T21:47:33.772Z,18.60
2023-01-31T21:50:01.276Z,18.60
2023-01-31T21:52:28.859Z,18.60
2023-01-31T21:54:56.383Z,18.70
2023-01-31T21:57:23.879Z,18.70
2023-01-31T21:59:51.474Z,18.70
2023-01-31T22:02:19.022Z,18.60
2023-01-31T22:04:46.553Z,18.60
2023-01-31T22:07:14.266Z,18.50
2023-01-31T22:09:41.775Z,18.50
2023-01-31T22:12:09.302Z,18.50
2023-01-31T22:14:36.892Z,18.50
2023-01-31T22:17:04.403Z,18.40
2023-01-31T22:19:32.042Z,18.40
2023-01-31T22:21:59.565Z,18.30
2023-01-31T22:24:27.090Z,18.30
2023-01-31T22:26:54.682Z,18.20
2023-01-31T22:29:22.201Z,18.20
2023-01-31T22:31:49.874Z,18.10
2023-01-31T22:34:17.525Z,18.10
2023-01-31T22:36:45.087Z,18.20
2023-01-31T22:39:16.148Z,18.10
2023-01-31T22:41:44.992Z,18.10
2023-01-31T22:44:12.641Z,18.10
2023-01-31T22:46:40.287Z,18.10
2023-01-31T22:49:07.947Z,18.00
2023-01-31T22:51:36.195Z,18.00
2023-01-31T22:54:03.876Z,18.10
2023-01-31T22:56:32.326Z,18.00
2023-01-31T22:59:01.311Z,18.00
2023-01-31T23:01:30.843Z,17.90
2023-01-31T23:03:59.634Z,17.90
2023-01-31T23:06:27.831Z,17.80
2023-01-31T23:08:56.170Z,17.80
2023-01-31T23:11:24.653Z,17.80
2023-01-31T23:13:52.174Z,17.80
2023-01-31T23:16:21.074Z,17.80
2023-01-31T23:18:48.708Z,17.80
2023-01-31T23:21:17.527Z,17.80
2023-01-31T23:23:45.549Z,17.90
2023-01-31T23:26:13.414Z,17.90
2023-01-31T23:28:41.283Z,17.90
2023-01-31T23:31:08.932Z,17.90
2023-01-31T23:33:36.640Z,17.90
2023-01-31T23:36:04.283Z,17.90
2023-01-31T23:38:31.809Z,17.90
2023-01-31T23:40:59.374Z,17.90
2023-01-31T23:43:26.902Z,17.90
2023-01-31T23:45:54.470Z,17.90
2023-01-31T23:48:22.018Z,17.90
2023-01-31T23:50:49.519Z,17.90
2023-01-31T23:53:17.578Z,17.90
2023-01-31T23:55:45.066Z,17.90
2023-01-31T23:58:13.353Z,17.80
